createdAt,value
2023-03-26T00:01:19.214Z,100736.53
2023-03-26T00:03:47.062Z,100740.16
2023-03-26T00:06:16.033Z,100736.34
2023-03-26T00:08:44.922Z,100742.88
2023-03-26T00:11:14.309Z,100739.03
2023-03-26T00:13:43.726Z,100735.75
2023-03-26T00:16:13.721Z,100732.88
2023-03-26T00:18:44.420Z,100725.56
2023-03-26T00:21:14.885Z,100731.47
2023-03-26T00:23:42.802Z,100726.69
2023-03-26T00:26:10.692Z,100719.06
2023-03-26T00:28:42.335Z,100727.97
2023-03-26T00:31:12.271Z,100720.97
2023-03-26T00:33:40.713Z,100715.88
2023-03-26T00:36:10.930Z,100709.34
2023-03-26T00:38:41.625Z,100714.75
2023-03-26T00:41:17.781Z,100703.31
2023-03-26T00:43:48.552Z,100705.38
2023-03-26T00:46:15.615Z,100693.75
2023-03-26T00:48:45.990Z,100695.00
2023-03-26T00:51:15.565Z,100684.97
2023-03-26T00:53:43.902Z,100692.09
2023-03-26T00:56:10.939Z,100686.38
2023-03-26T00:58:37.782Z,100691.56
2023-03-26T01:01:08.329Z,100685.69
2023-03-26T01:03:38.403Z,100686.81
2023-03-26T01:06:11.292Z,100682.19
2023-03-26T01:08:47.461Z,100682.97
2023-03-26T01:11:22.553Z,100676.13
2023-03-26T01:14:07.210Z,100672.75
2023-03-26T01:16:42.163Z,100670.06
2023-03-26T01:19:47.657Z,100657.31
2023-03-26T01:22:17.916Z,100651.91
2023-03-26T01:24:48.685Z,100659.03
2023-03-26T01:27:54.166Z,100644.84
2023-03-26T01:30:42.345Z,100644.06
2023-03-26T01:33:33.914Z,100636.28
2023-03-26T01:36:33.239Z,100629.31
2023-03-26T01:39:09.763Z,100626.91
2023-03-26T01:41:49.327Z,100629.84
2023-03-26T01:44:36.499Z,100627.81
2023-03-26T01:47:04.122Z,100627.00
2023-03-26T01:49:31.776Z,100614.75
2023-03-26T01:51:58.337Z,100611.38
2023-03-26T01:54:28.248Z,100612.59
2023-03-26T01:57:16.421Z,100602.56
2023-03-26T02:00:11.512Z,100591.09
2023-03-26T02:02:44.152Z,100596.97
2023-03-26T02:05:29.816Z,100595.03
2023-03-26T02:08:35.220Z,100592.00
2023-03-26T02:11:05.968Z,100588.28
2023-03-26T02:13:32.614Z,100576.69
2023-03-26T02:16:01.466Z,100576.25
2023-03-26T02:18:39.004Z,100575.13
2023-03-26T02:21:10.926Z,100572.19
2023-03-26T02:23:37.815Z,100577.16
2023-03-26T02:26:11.394Z,100573.19
2023-03-26T02:28:38.304Z,100570.03
2023-03-26T02:31:05.514Z,100569.94
2023-03-26T02:33:32.348Z,100577.25
2023-03-26T02:36:02.397Z,100570.59
2023-03-26T02:38:30.378Z,100565.41
2023-03-26T02:40:56.858Z,100568.91
2023-03-26T02:43:23.492Z,100567.34
2023-03-26T02:45:50.238Z,100558.75
2023-03-26T02:48:17.011Z,100561.13
2023-03-26T02:50:43.924Z,100557.31
2023-03-26T02:53:11.776Z,100552.25
2023-03-26T02:55:38.328Z,100557.97
2023-03-26T02:58:04.768Z,100556.41
2023-03-26T03:00:31.209Z,100558.31
2023-03-26T03:03:04.556Z,100549.84
2023-03-26T03:05:32.929Z,100547.16
2023-03-26T03:07:59.599Z,100544.44
2023-03-26T03:10:27.625Z,100541.75
2023-03-26T03:12:54.759Z,100536.34
2023-03-26T03:15:21.617Z,100534.44
2023-03-26T03:17:48.229Z,100542.53
2023-03-26T03:20:15.502Z,100527.13
2023-03-26T03:22:42.552Z,100526.78
2023-03-26T03:25:14.272Z,100531.41
2023-03-26T03:27:42.767Z,100513.94
2023-03-26T03:30:11.855Z,100521.25
2023-03-26T03:32:38.656Z,100517.78
2023-03-26T03:35:05.867Z,100528.13
2023-03-26T03:37:32.358Z,100521.13
2023-03-26T03:39:58.800Z,100516.06
2023-03-26T03:42:25.346Z,100517.63
2023-03-26T03:44:51.773Z,100511.09
2023-03-26T03:47:18.243Z,100513.03
2023-03-26T03:49:44.694Z,100505.69
2023-03-26T03:52:11.173Z,100513.94
2023-03-26T03:54:37.743Z,100507.88
2023-03-26T03:57:04.444Z,100492.00
2023-03-26T03:59:30.892Z,100494.13
2023-03-26T04:01:57.386Z,100486.44
2023-03-26T04:04:24.722Z,100490.06
2023-03-26T04:06:52.013Z,100493.66
2023-03-26T04:09:19.001Z,100495.69
2023-03-26T04:11:45.577Z,100484.53
2023-03-26T04:14:11.999Z,100490.41
2023-03-26T04:16:38.483Z,100481.50
2023-03-26T04:19:05.064Z,100478.91
2023-03-26T04:21:32.001Z,100468.09
2023-03-26T04:23:58.491Z,100470.47
2023-03-26T04:26:24.931Z,100466.28
2023-03-26T04:28:59.781Z,100461.22
2023-03-26T04:31:30.578Z,100448.84
2023-03-26T04:34:05.552Z,100448.72
2023-03-26T04:36:34.259Z,100443.31
2023-03-26T04:39:03.534Z,100439.81
2023-03-26T04:41:30.205Z,100441.84
2023-03-26T04:43:56.816Z,100428.34
2023-03-26T04:46:23.732Z,100434.06
2023-03-26T04:48:51.884Z,100428.34
2023-03-26T04:51:21.900Z,100425.63
2023-03-26T04:53:57.855Z,100422.03
2023-03-26T04:56:43.361Z,100419.75
2023-03-26T04:59:18.159Z,100417.75
2023-03-26T05:01:45.995Z,100410.50
2023-03-26T05:04:13.608Z,100402.41
2023-03-26T05:06:41.774Z,100405.91
2023-03-26T05:09:10.651Z,100400.16
2023-03-26T05:11:37.347Z,100404.44
2023-03-26T05:14:03.824Z,100401.38
2023-03-26T05:16:31.769Z,100398.34
2023-03-26T05:18:58.314Z,100391.78
2023-03-26T05:21:25.360Z,100396.19
2023-03-26T05:23:51.836Z,100385.59
2023-03-26T05:26:19.297Z,100382.91
2023-03-26T05:28:45.835Z,100379.41
2023-03-26T05:31:12.499Z,100374.44
2023-03-26T05:33:39.060Z,100378.63
2023-03-26T05:36:15.251Z,100373.13
2023-03-26T05:38:47.241Z,100363.88
2023-03-26T05:41:13.911Z,100368.16
2023-03-26T05:43:40.396Z,100361.28
2023-03-26T05:46:07.282Z,100362.59
2023-03-26T05:48:33.836Z,100359.13
2023-03-26T05:51:00.307Z,100352.38
2023-03-26T05:53:27.537Z,100348.00
2023-03-26T05:55:59.576Z,100339.13
2023-03-26T05:58:28.099Z,100339.78
2023-03-26T06:01:09.220Z,100346.09
2023-03-26T06:03:38.373Z,100331.09
2023-03-26T06:06:17.577Z,100340.06
2023-03-26T06:09:01.661Z,100337.38
2023-03-26T06:11:30.323Z,100333.22
2023-03-26T06:13:56.774Z,100327.03
2023-03-26T06:16:26.895Z,100319.22
2023-03-26T06:18:56.648Z,100313.94
2023-03-26T06:21:28.181Z,100310.97
2023-03-26T06:23:55.628Z,100314.47
2023-03-26T06:26:22.510Z,100306.09
2023-03-26T06:28:49.326Z,100306.03
2023-03-26T06:31:17.254Z,100307.16
2023-03-26T06:33:43.822Z,100302.75
2023-03-26T06:36:10.597Z,100301.53
2023-03-26T06:38:37.086Z,100304.25
2023-03-26T06:41:05.444Z,100305.47
2023-03-26T06:43:36.176Z,100309.31
2023-03-26T06:46:03.743Z,100311.66
2023-03-26T06:48:30.622Z,100303.13
2023-03-26T06:50:57.260Z,100309.50
2023-03-26T06:53:23.728Z,100306.09
2023-03-26T06:55:50.321Z,100307.31
2023-03-26T06:58:17.005Z,100309.00
2023-03-26T07:00:43.517Z,100313.03
2023-03-26T07:03:11.325Z,100309.53
2023-03-26T07:05:40.404Z,100297.22
2023-03-26T07:08:06.945Z,100302.28
2023-03-26T07:10:33.757Z,100305.84
2023-03-26T07:13:00.332Z,100309.03
2023-03-26T07:15:28.587Z,100299.41
2023-03-26T07:17:55.515Z,100300.75
2023-03-26T07:20:22.194Z,100297.31
2023-03-26T07:22:49.650Z,100298.19
2023-03-26T07:25:18.196Z,100295.16
2023-03-26T07:28:26.757Z,100288.78
2023-03-26T07:30:59.248Z,100285.72
2023-03-26T07:33:37.695Z,100288.84
2023-03-26T07:36:34.102Z,100288.25
2023-03-26T07:39:21.369Z,100277.50
2023-03-26T07:42:13.595Z,100275.13
2023-03-26T07:44:46.165Z,100275.66
2023-03-26T07:47:29.056Z,100282.56
2023-03-26T07:49:57.896Z,100270.31
2023-03-26T07:52:25.824Z,100267.44
2023-03-26T07:54:52.835Z,100264.00
2023-03-26T07:57:37.532Z,100263.56
2023-03-26T08:00:30.159Z,100274.06
2023-03-26T08:03:22.112Z,100264.38
2023-03-26T08:06:05.410Z,100263.66
2023-03-26T08:08:42.219Z,100261.16
2023-03-26T08:11:11.537Z,100269.28
2023-03-26T08:13:50.360Z,100262.28
2023-03-26T08:16:23.690Z,100261.59
2023-03-26T08:19:16.716Z,100267.16
2023-03-26T08:21:51.544Z,100266.44
2023-03-26T08:24:26.295Z,100264.88
2023-03-26T08:27:21.422Z,100271.44
2023-03-26T08:30:03.874Z,100270.66
2023-03-26T08:32:31.133Z,100272.50
2023-03-26T08:35:00.030Z,100268.56
2023-03-26T08:37:27.362Z,100263.66
2023-03-26T08:39:54.117Z,100268.28
2023-03-26T08:42:51.171Z,100271.44
2023-03-26T08:45:43.005Z,100278.19
2023-03-26T08:48:31.093Z,100265.06
2023-03-26T08:51:32.392Z,100274.41
2023-03-26T08:54:04.963Z,100266.72
2023-03-26T08:57:13.016Z,100264.53
2023-03-26T09:00:05.869Z,100261.03
2023-03-26T09:03:06.777Z,100265.38
2023-03-26T09:05:46.569Z,100263.31
2023-03-26T09:08:18.916Z,100266.53
2023-03-26T09:10:58.185Z,100270.38
2023-03-26T09:14:06.098Z,100270.31
2023-03-26T09:17:03.858Z,100257.25
2023-03-26T09:19:39.329Z,100265.63
2023-03-26T09:22:43.389Z,100264.19
2023-03-26T09:25:13.471Z,100265.06
2023-03-26T09:28:01.790Z,100267.00
2023-03-26T09:30:38.737Z,100261.06
2023-03-26T09:33:23.902Z,100261.78
2023-03-26T09:36:06.238Z,100255.94
2023-03-26T09:39:04.994Z,100266.78
2023-03-26T09:41:52.560Z,100267.88
2023-03-26T09:44:43.232Z,100272.53
2023-03-26T09:47:22.270Z,100271.69
2023-03-26T09:49:56.210Z,100272.38
2023-03-26T09:52:47.316Z,100274.47
2023-03-26T09:55:58.581Z,100277.19
2023-03-26T09:58:49.799Z,100276.06
2023-03-26T10:01:33.646Z,100274.56
2023-03-26T10:04:40.205Z,100279.28
2023-03-26T10:07:22.012Z,100280.06
2023-03-26T10:10:04.124Z,100286.97
2023-03-26T10:13:04.874Z,100292.91
2023-03-26T10:16:15.449Z,100286.00
2023-03-26T10:19:05.331Z,100284.84
2023-03-26T10:21:46.555Z,100285.06
2023-03-26T10:24:40.564Z,100289.63
2023-03-26T10:27:14.268Z,100283.47
2023-03-26T10:29:51.053Z,100291.34
2023-03-26T10:32:30.661Z,100291.84
2023-03-26T10:35:09.291Z,100296.56
2023-03-26T10:37:47.846Z,100303.03
2023-03-26T10:40:23.668Z,100296.78
2023-03-26T10:43:08.892Z,100301.72
2023-03-26T10:46:04.352Z,100299.91
2023-03-26T10:48:35.716Z,100307.44
2023-03-26T10:51:30.186Z,100308.28
2023-03-26T10:54:12.908Z,100306.78
2023-03-26T10:56:47.845Z,100305.56
2023-03-26T10:59:16.438Z,100314.50
2023-03-26T11:01:58.184Z,100308.47
2023-03-26T11:04:48.861Z,100314.59
2023-03-26T11:07:34.829Z,100310.59
2023-03-26T11:10:13.679Z,100319.84
2023-03-26T11:12:47.262Z,100315.63
2023-03-26T11:15:18.120Z,100318.88
2023-03-26T11:18:10.725Z,100327.19
2023-03-26T11:20:40.278Z,100319.91
2023-03-26T11:23:27.227Z,100325.63
2023-03-26T11:26:22.866Z,100323.94
2023-03-26T11:29:31.712Z,100338.63
2023-03-26T11:31:59.470Z,100334.44
2023-03-26T11:34:33.875Z,100345.72
2023-03-26T11:37:03.201Z,100340.47
2023-03-26T11:39:40.559Z,100337.34
2023-03-26T11:42:14.295Z,100348.16
2023-03-26T11:44:48.851Z,100355.13
2023-03-26T11:47:21.378Z,100338.38
2023-03-26T11:49:51.177Z,100346.38
2023-03-26T11:52:17.631Z,100351.91
2023-03-26T11:54:48.198Z,100348.78
2023-03-26T11:57:21.738Z,100365.53
2023-03-26T11:59:58.088Z,100352.09
2023-03-26T12:02:32.498Z,100362.91
2023-03-26T12:05:29.431Z,100366.66
2023-03-26T12:08:01.081Z,100364.84
2023-03-26T12:10:33.394Z,100374.19
2023-03-26T12:13:03.128Z,100374.00
2023-03-26T12:15:32.105Z,100365.78
2023-03-26T12:18:17.915Z,100374.88
2023-03-26T12:20:45.013Z,100382.22
2023-03-26T12:23:52.460Z,100385.25
2023-03-26T12:26:30.267Z,100385.44
2023-03-26T12:28:56.705Z,100388.47
2023-03-26T12:31:26.436Z,100389.44
2023-03-26T12:34:31.635Z,100387.94
2023-03-26T12:37:01.820Z,100386.50
2023-03-26T12:40:10.203Z,100395.41
2023-03-26T12:44:46.871Z,100400.28
2023-03-26T12:45:22.806Z,100406.31
2023-03-26T12:48:01.246Z,100405.16
2023-03-26T12:51:06.525Z,100403.34
2023-03-26T12:53:46.250Z,100405.72
2023-03-26T12:56:38.553Z,100409.19
2023-03-26T12:59:19.615Z,100410.41
2023-03-26T13:01:55.130Z,100413.75
2023-03-26T13:05:06.012Z,100413.50
2023-03-26T13:07:58.427Z,100417.84
2023-03-26T13:10:27.954Z,100417.22
2023-03-26T13:13:37.588Z,100416.19
2023-03-26T13:16:13.839Z,100413.13
2023-03-26T13:19:05.092Z,100414.28
2023-03-26T13:21:41.602Z,100428.25
2023-03-26T13:24:30.168Z,100427.72
2023-03-26T13:27:06.179Z,100420.91
2023-03-26T13:30:00.652Z,100425.19
2023-03-26T13:32:52.268Z,100437.88
2023-03-26T13:35:31.407Z,100433.06
2023-03-26T13:38:16.591Z,100427.09
2023-03-26T13:40:57.880Z,100437.50
2023-03-26T13:43:37.176Z,100436.31
2023-03-26T13:46:15.430Z,100438.47
2023-03-26T13:48:54.203Z,100441.44
2023-03-26T13:52:02.600Z,100445.81
2023-03-26T13:54:51.415Z,100450.63
2023-03-26T13:57:35.611Z,100452.44
2023-03-26T14:00:12.740Z,100463.44
2023-03-26T14:02:42.508Z,100453.69
2023-03-26T14:05:25.882Z,100460.75
2023-03-26T14:08:17.827Z,100465.22
2023-03-26T14:10:51.249Z,100465.28
2023-03-26T14:13:35.855Z,100475.13
2023-03-26T14:16:17.329Z,100472.56
2023-03-26T14:19:21.387Z,100467.81
2023-03-26T14:21:53.916Z,100483.66
2023-03-26T14:24:51.428Z,100486.56
2023-03-26T14:27:44.870Z,100483.31
2023-03-26T14:30:41.533Z,100492.84
2023-03-26T14:33:27.510Z,100494.78
2023-03-26T14:36:11.302Z,100500.34
2023-03-26T14:39:01.266Z,100494.25
2023-03-26T14:41:44.928Z,100506.81
2023-03-26T14:44:48.240Z,100516.16
2023-03-26T14:47:19.233Z,100519.56
2023-03-26T14:50:23.032Z,100517.03
2023-03-26T14:52:51.613Z,100519.31
2023-03-26T14:55:18.276Z,100537.38
2023-03-26T14:58:22.071Z,100531.59
2023-03-26T15:01:06.905Z,100549.88
2023-03-26T15:04:06.890Z,100549.63
2023-03-26T15:07:11.044Z,100552.69
2023-03-26T15:10:02.631Z,100552.25
2023-03-26T15:12:38.354Z,100563.09
2023-03-26T15:15:26.327Z,100572.63
2023-03-26T15:18:31.084Z,100572.13
2023-03-26T15:21:19.284Z,100581.13
2023-03-26T15:24:04.852Z,100572.53
2023-03-26T15:27:01.113Z,100584.00
2023-03-26T15:29:55.775Z,100584.91
2023-03-26T15:32:52.668Z,100594.56
2023-03-26T15:35:29.893Z,100592.97
2023-03-26T15:38:33.676Z,100599.13
2023-03-26T15:41:37.754Z,100596.50
2023-03-26T15:44:25.585Z,100609.25
2023-03-26T15:47:01.714Z,100610.81
2023-03-26T15:49:42.614Z,100622.22
2023-03-26T15:52:31.278Z,100633.81
2023-03-26T15:55:09.487Z,100635.53
2023-03-26T15:57:56.999Z,100640.78
2023-03-26T16:00:26.531Z,100639.72
2023-03-26T16:03:34.234Z,100646.34
2023-03-26T16:06:34.850Z,100658.69
2023-03-26T16:09:27.024Z,100668.50
2023-03-26T16:12:23.365Z,100671.81
2023-03-26T16:15:23.872Z,100675.91
2023-03-26T16:18:10.219Z,100681.53
2023-03-26T16:20:52.905Z,100682.91
2023-03-26T16:23:27.337Z,100687.88
2023-03-26T16:26:06.011Z,100692.75
2023-03-26T16:28:35.083Z,100700.88
2023-03-26T16:31:36.483Z,100713.28
2023-03-26T16:34:05.232Z,100716.75
2023-03-26T16:36:34.603Z,100711.34
2023-03-26T16:39:04.371Z,100730.44
2023-03-26T16:41:32.866Z,100728.28
2023-03-26T16:44:17.377Z,100732.00
2023-03-26T16:46:54.461Z,100736.84
2023-03-26T16:49:41.503Z,100737.97
2023-03-26T16:52:20.987Z,100754.88
2023-03-26T16:54:47.622Z,100757.47
2023-03-26T16:57:32.222Z,100766.63
2023-03-26T17:00:23.417Z,100766.38
2023-03-26T17:02:59.817Z,100775.13
2023-03-26T17:05:59.129Z,100788.84
2023-03-26T17:09:01.342Z,100793.13
2023-03-26T17:11:27.751Z,100794.75
2023-03-26T17:14:28.280Z,100801.84
2023-03-26T17:17:21.347Z,100809.06
2023-03-26T17:20:00.726Z,100816.28
2023-03-26T17:22:41.215Z,100822.94
2023-03-26T17:25:28.551Z,100839.34
2023-03-26T17:28:39.664Z,100838.06
2023-03-26T17:31:36.412Z,100847.88
2023-03-26T17:34:49.141Z,100860.19
2023-03-26T17:37:22.046Z,100863.88
2023-03-26T17:39:51.506Z,100859.25
2023-03-26T17:42:26.250Z,100876.91
2023-03-26T17:44:55.985Z,100880.72
2023-03-26T17:47:38.359Z,100889.03
2023-03-26T17:50:16.450Z,100901.09
2023-03-26T17:52:49.630Z,100898.13
2023-03-26T17:55:20.914Z,100897.69
2023-03-26T17:57:51.549Z,100914.56
2023-03-26T18:00:23.522Z,100919.97
2023-03-26T18:02:55.293Z,100907.31
2023-03-26T18:05:24.945Z,100915.19
2023-03-26T18:08:02.037Z,100934.59
2023-03-26T18:10:38.870Z,100937.84
2023-03-26T18:13:05.328Z,100937.53
2023-03-26T18:15:57.765Z,100944.53
2023-03-26T18:18:34.456Z,100944.19
2023-03-26T18:21:04.516Z,100959.47
2023-03-26T18:23:48.828Z,100961.22
2023-03-26T18:26:19.651Z,100965.81
2023-03-26T18:28:53.174Z,100968.25
2023-03-26T18:31:26.291Z,100979.69
2023-03-26T18:34:03.134Z,100982.09
2023-03-26T18:36:30.999Z,100987.66
2023-03-26T18:39:04.208Z,100987.34
2023-03-26T18:41:41.716Z,100998.78
2023-03-26T18:44:15.794Z,101004.00
2023-03-26T18:46:43.297Z,101006.88
2023-03-26T18:49:15.834Z,101015.91
2023-03-26T18:51:56.119Z,101028.13
2023-03-26T18:54:23.873Z,101029.88
2023-03-26T18:56:52.158Z,101031.16
2023-03-26T18:59:28.917Z,101051.63
2023-03-26T19:01:59.803Z,101056.06
2023-03-26T19:04:28.360Z,101059.25
2023-03-26T19:06:56.893Z,101061.31
2023-03-26T19:09:31.510Z,101063.84
2023-03-26T19:12:07.097Z,101070.06
2023-03-26T19:14:37.144Z,101072.13
2023-03-26T19:17:07.053Z,101067.50
2023-03-26T19:19:37.372Z,101080.66
2023-03-26T19:22:11.346Z,101085.59
2023-03-26T19:24:40.405Z,101092.09
2023-03-26T19:27:07.738Z,101090.31
2023-03-26T19:29:36.213Z,101099.19
2023-03-26T19:32:18.258Z,101105.91
2023-03-26T19:34:47.008Z,101119.66
2023-03-26T19:37:49.369Z,101117.28
2023-03-26T19:40:30.249Z,101117.59
2023-03-26T19:42:59.707Z,101134.44
2023-03-26T19:45:27.019Z,101132.69
2023-03-26T19:48:07.448Z,101136.50
2023-03-26T19:50:43.286Z,101140.31
2023-03-26T19:53:24.237Z,101145.22
2023-03-26T19:55:57.301Z,101149.31
2023-03-26T19:58:25.950Z,101152.28
2023-03-26T20:00:53.005Z,101152.94
2023-03-26T20:03:27.276Z,101160.09
2023-03-26T20:05:53.902Z,101169.75
2023-03-26T20:08:26.655Z,101172.19
2023-03-26T20:10:54.878Z,101177.13
2023-03-26T20:13:21.632Z,101186.63
2023-03-26T20:16:05.637Z,101186.31
2023-03-26T20:18:34.118Z,101188.97
2023-03-26T20:21:00.714Z,101191.50
2023-03-26T20:23:28.778Z,101194.88
2023-03-26T20:25:55.614Z,101196.94
2023-03-26T20:28:22.336Z,101211.09
2023-03-26T20:30:50.778Z,101209.66
2023-03-26T20:33:26.578Z,101218.34
2023-03-26T20:35:55.296Z,101221.13
2023-03-26T20:38:36.650Z,101217.16
2023-03-26T20:41:09.610Z,101222.50
2023-03-26T20:43:36.644Z,101226.31
2023-03-26T20:46:04.023Z,101231.06
2023-03-26T20:48:30.523Z,101236.09
2023-03-26T20:50:57.087Z,101241.19
2023-03-26T20:53:24.195Z,101248.31
2023-03-26T20:55:51.634Z,101258.94
2023-03-26T20:58:31.474Z,101257.19
2023-03-26T21:01:01.577Z,101261.91
2023-03-26T21:03:28.263Z,101257.97
2023-03-26T21:06:00.108Z,101272.09
2023-03-26T21:08:30.204Z,101273.34
2023-03-26T21:10:58.692Z,101275.56
2023-03-26T21:13:28.164Z,101290.88
2023-03-26T21:15:54.857Z,101289.09
2023-03-26T21:18:21.845Z,101293.38
2023-03-26T21:21:07.592Z,101288.50
2023-03-26T21:23:49.070Z,101300.97
2023-03-26T21:26:25.616Z,101302.50
2023-03-26T21:28:52.293Z,101315.19
2023-03-26T21:31:21.324Z,101311.31
2023-03-26T21:33:49.357Z,101307.09
2023-03-26T21:36:18.078Z,101304.25
2023-03-26T21:38:45.592Z,101315.03
2023-03-26T21:41:24.523Z,101318.13
2023-03-26T21:43:51.545Z,101323.16
2023-03-26T21:46:18.541Z,101335.41
2023-03-26T21:48:45.363Z,101337.81
2023-03-26T21:51:14.730Z,101341.31
2023-03-26T21:53:42.949Z,101356.28
2023-03-26T21:56:35.768Z,101351.19
2023-03-26T21:59:40.992Z,101361.44
2023-03-26T22:02:23.085Z,101370.31
2023-03-26T22:04:51.698Z,101368.25
2023-03-26T22:07:30.609Z,101377.88
2023-03-26T22:09:57.303Z,101376.13
2023-03-26T22:12:25.610Z,101382.50
2023-03-26T22:14:52.573Z,101385.56
2023-03-26T22:17:19.514Z,101392.59
2023-03-26T22:19:46.012Z,101400.16
2023-03-26T22:22:12.541Z,101388.34
2023-03-26T22:24:39.108Z,101391.22
2023-03-26T22:27:06.203Z,101398.69
2023-03-26T22:29:32.830Z,101397.59
2023-03-26T22:31:59.311Z,101406.28
2023-03-26T22:34:25.944Z,101407.56
2023-03-26T22:36:53.173Z,101415.25
2023-03-26T22:39:19.688Z,101413.97
2023-03-26T22:41:46.117Z,101426.63
2023-03-26T22:44:19.745Z,101419.22
2023-03-26T22:46:49.142Z,101430.00
2023-03-26T22:49:16.511Z,101433.50
2023-03-26T22:51:43.082Z,101439.88
2023-03-26T22:54:09.617Z,101437.94
2023-03-26T22:56:37.045Z,101452.44
2023-03-26T22:59:03.790Z,101454.03
2023-03-26T23:01:30.659Z,101449.00
2023-03-26T23:03:57.918Z,101459.34
2023-03-26T23:06:25.080Z,101469.03
2023-03-26T23:08:51.679Z,101462.63
2023-03-26T23:11:20.378Z,101472.72
2023-03-26T23:13:47.905Z,101474.03
2023-03-26T23:16:16.668Z,101479.19
2023-03-26T23:18:43.288Z,101487.88
2023-03-26T23:21:21.522Z,101484.88
2023-03-26T23:23:49.717Z,101489.47
2023-03-26T23:26:16.647Z,101496.00
2023-03-26T23:28:43.327Z,101495.72
2023-03-26T23:31:13.436Z,101505.06
2023-03-26T23:33:46.185Z,101499.78
2023-03-26T23:36:17.553Z,101512.59
2023-03-26T23:38:48.160Z,101508.44
2023-03-26T23:41:16.959Z,101524.00
2023-03-26T23:43:53.936Z,101530.97
2023-03-26T23:46:30.896Z,101532.94
2023-03-26T23:49:00.019Z,101543.50
2023-03-26T23:51:26.722Z,101543.94
2023-03-26T23:53:54.037Z,101547.75
2023-03-26T23:56:20.938Z,101549.84
2023-03-26T23:58:48.921Z,101550.59
